sensor_id;sensor_type;location;lat;lon;timestamp;temperature;humidity
18888;DHT22;9576;47.792;9.628;2022-12-24T00:00:28;10.30;99.90
18888;DHT22;9576;47.792;9.628;2022-12-24T00:03:30;10.40;99.90
18888;DHT22;9576;47.792;9.628;2022-12-24T00:06:34;10.40;99.90
18888;DHT22;9576;47.792;9.628;2022-12-24T00:09:36;10.50;99.90
18888;DHT22;9576;47.792;9.628;2022-12-24T00:12:38;10.50;99.90
18888;DHT22;9576;47.792;9.628;2022-12-24T00:15:40;10.40;99.90
18888;DHT22;9576;47.792;9.628;2022-12-24T00:18:42;10.40;99.90
18888;DHT22;9576;47.792;9.628;2022-12-24T00:21:45;10.40;99.90
18888;DHT22;9576;47.792;9.628;2022-12-24T00:24:47;10.40;99.90
18888;DHT22;9576;47.792;9.628;2022-12-24T00:27:50;10.40;99.90
18888;DHT22;9576;47.792;9.628;2022-12-24T00:30:51;10.40;99.90
18888;DHT22;9576;47.792;9.628;2022-12-24T00:33:53;10.40;99.90
18888;DHT22;9576;47.792;9.628;2022-12-24T00:36:57;10.40;99.90
18888;DHT22;9576;47.792;9.628;2022-12-24T00:39:59;10.40;99.90
18888;DHT22;9576;47.792;9.628;2022-12-24T00:43:00;10.50;99.90
18888;DHT22;9576;47.792;9.628;2022-12-24T00:46:03;10.60;99.90
18888;DHT22;9576;47.792;9.628;2022-12-24T00:49:06;10.60;99.90
18888;DHT22;9576;47.792;9.628;2022-12-24T00:52:09;10.70;99.90
18888;DHT22;9576;47.792;9.628;2022-12-24T00:55:11;10.60;99.90
18888;DHT22;9576;47.792;9.628;2022-12-24T00:58:13;10.60;99.90
18888;DHT22;9576;47.792;9.628;2022-12-24T01:01:16;10.50;99.90
18888;DHT22;9576;47.792;9.628;2022-12-24T01:04:18;10.40;99.90
18888;DHT22;9576;47.792;9.628;2022-12-24T01:07:40;10.40;99.90
18888;DHT22;9576;47.792;9.628;2022-12-24T01:10:43;10.40;99.90
18888;DHT22;9576;47.792;9.628;2022-12-24T01:13:45;10.40;99.90
18888;DHT22;9576;47.792;9.628;2022-12-24T01:16:47;10.40;99.90
18888;DHT22;9576;47.792;9.628;2022-12-24T01:19:49;10.30;99.90
18888;DHT22;9576;47.792;9.628;2022-12-24T01:22:52;10.30;99.90
18888;DHT22;9576;47.792;9.628;2022-12-24T01:25:54;10.40;99.90
18888;DHT22;9576;47.792;9.628;2022-12-24T01:29:00;10.40;99.90
18888;DHT22;9576;47.792;9.628;2022-12-24T01:32:02;10.40;99.90
18888;DHT22;9576;47.792;9.628;2022-12-24T01:35:05;10.40;99.90
18888;DHT22;9576;47.792;9.628;2022-12-24T01:38:09;10.40;99.90
18888;DHT22;9576;47.792;9.628;2022-12-24T01:41:14;10.40;99.90
18888;DHT22;9576;47.792;9.628;2022-12-24T01:44:32;10.40;99.90
18888;DHT22;9576;47.792;9.628;2022-12-24T01:47:34;10.40;99.90
18888;DHT22;9576;47.792;9.628;2022-12-24T01:50:36;10.50;99.90
18888;DHT22;9576;47.792;9.628;2022-12-24T01:53:43;10.50;99.90
18888;DHT22;9576;47.792;9.628;2022-12-24T01:56:48;10.50;99.90
18888;DHT22;9576;47.792;9.628;2022-12-24T01:59:54;10.50;99.90
18888;DHT22;9576;47.792;9.628;2022-12-24T02:02:57;10.50;99.90
18888;DHT22;9576;47.792;9.628;2022-12-24T02:06:00;10.50;99.90
18888;DHT22;9576;47.792;9.628;2022-12-24T02:09:03;10.60;99.90
18888;DHT22;9576;47.792;9.628;2022-12-24T02:12:06;10.60;99.90
18888;DHT22;9576;47.792;9.628;2022-12-24T02:15:12;10.60;99.90
18888;DHT22;9576;47.792;9.628;2022-12-24T02:18:21;10.60;99.90
18888;DHT22;9576;47.792;9.628;2022-12-24T02:21:47;10.50;99.90
18888;DHT22;9576;47.792;9.628;2022-12-24T02:25:09;10.50;99.90
18888;DHT22;9576;47.792;9.628;2022-12-24T02:28:24;10.50;99.90
18888;DHT22;9576;47.792;9.628;2022-12-24T02:31:35;10.50;99.90
18888;DHT22;9576;47.792;9.628;2022-12-24T02:34:44;10.50;99.90
18888;DHT22;9576;47.792;9.628;2022-12-24T02:37:51;10.50;99.90
18888;DHT22;9576;47.792;9.628;2022-12-24T02:40:57;10.50;99.90
18888;DHT22;9576;47.792;9.628;2022-12-24T02:44:02;10.40;99.90
18888;DHT22;9576;47.792;9.628;2022-12-24T02:47:05;10.40;99.90
18888;DHT22;9576;47.792;9.628;2022-12-24T02:50:10;10.40;99.90
18888;DHT22;9576;47.792;9.628;2022-12-24T02:53:12;10.40;99.90
18888;DHT22;9576;47.792;9.628;2022-12-24T02:56:35;10.40;99.90
18888;DHT22;9576;47.792;9.628;2022-12-24T02:59:58;10.40;99.90
18888;DHT22;9576;47.792;9.628;2022-12-24T03:03:30;10.40;99.90
18888;DHT22;9576;47.792;9.628;2022-12-24T03:06:41;10.40;99.90
18888;DHT22;9576;47.792;9.628;2022-12-24T03:09:55;10.40;99.90
18888;DHT22;9576;47.792;9.628;2022-12-24T03:13:05;10.50;99.90
18888;DHT22;9576;47.792;9.628;2022-12-24T03:16:11;10.40;99.90
18888;DHT22;9576;47.792;9.628;2022-12-24T03:19:17;10.30;99.90
18888;DHT22;9576;47.792;9.628;2022-12-24T03:22:19;10.30;99.90
18888;DHT22;9576;47.792;9.628;2022-12-24T03:25:24;10.30;99.90
18888;DHT22;9576;47.792;9.628;2022-12-24T03:28:27;10.30;99.90
18888;DHT22;9576;47.792;9.628;2022-12-24T03:31:39;10.40;99.90
18888;DHT22;9576;47.792;9.628;2022-12-24T03:34:43;10.40;99.90
18888;DHT22;9576;47.792;9.628;2022-12-24T03:37:45;10.50;99.90
18888;DHT22;9576;47.792;9.628;2022-12-24T03:40:47;10.40;99.90
18888;DHT22;9576;47.792;9.628;2022-12-24T03:43:48;10.50;99.90
18888;DHT22;9576;47.792;9.628;2022-12-24T03:46:50;10.50;99.90
18888;DHT22;9576;47.792;9.628;2022-12-24T03:49:54;10.50;99.90
18888;DHT22;9576;47.792;9.628;2022-12-24T03:52:55;10.40;99.90
18888;DHT22;9576;47.792;9.628;2022-12-24T03:55:57;10.50;99.90
18888;DHT22;9576;47.792;9.628;2022-12-24T03:59:00;10.40;99.90
18888;DHT22;9576;47.792;9.628;2022-12-24T04:02:02;10.40;99.90
18888;DHT22;9576;47.792;9.628;2022-12-24T04:05:06;10.30;99.90
18888;DHT22;9576;47.792;9.628;2022-12-24T04:08:08;10.30;99.90
18888;DHT22;9576;47.792;9.628;2022-12-24T04:11:12;10.30;99.90
18888;DHT22;9576;47.792;9.628;2022-12-24T04:14:14;10.30;99.90
18888;DHT22;9576;47.792;9.628;2022-12-24T04:17:16;10.30;99.90
18888;DHT22;9576;47.792;9.628;2022-12-24T04:20:20;10.30;99.90
18888;DHT22;9576;47.792;9.628;2022-12-24T04:23:22;10.20;99.90
18888;DHT22;9576;47.792;9.628;2022-12-24T04:26:24;10.20;99.90
18888;DHT22;9576;47.792;9.628;2022-12-24T04:29:26;10.20;99.90
18888;DHT22;9576;47.792;9.628;2022-12-24T04:32:28;10.20;99.90
18888;DHT22;9576;47.792;9.628;2022-12-24T04:35:31;10.10;99.90
18888;DHT22;9576;47.792;9.628;2022-12-24T04:38:34;10.00;99.90
18888;DHT22;9576;47.792;9.628;2022-12-24T04:41:36;10.00;99.90
18888;DHT22;9576;47.792;9.628;2022-12-24T04:44:38;10.00;99.90
18888;DHT22;9576;47.792;9.628;2022-12-24T04:47:39;10.10;99.90
18888;DHT22;9576;47.792;9.628;2022-12-24T04:50:43;10.20;99.90
18888;DHT22;9576;47.792;9.628;2022-12-24T04:53:45;10.20;99.90
18888;DHT22;9576;47.792;9.628;2022-12-24T04:56:47;10.20;99.90
18888;DHT22;9576;47.792;9.628;2022-12-24T04:59:49;10.10;99.90
18888;DHT22;9576;47.792;9.628;2022-12-24T05:02:50;10.00;99.90
18888;DHT22;9576;47.792;9.628;2022-12-24T05:06:00;10.00;99.90
18888;DHT22;9576;47.792;9.628;2022-12-24T05:09:02;10.00;99.90
18888;DHT22;9576;47.792;9.628;2022-12-24T05:12:04;10.00;99.90
18888;DHT22;9576;47.792;9.628;2022-12-24T05:15:06;10.00;99.90
18888;DHT22;9576;47.792;9.628;2022-12-24T05:18:08;9.90;99.90
18888;DHT22;9576;47.792;9.628;2022-12-24T05:21:14;9.90;99.90
18888;DHT22;9576;47.792;9.628;2022-12-24T05:24:17;9.80;99.90
18888;DHT22;9576;47.792;9.628;2022-12-24T05:27:36;9.80;99.90
18888;DHT22;9576;47.792;9.628;2022-12-24T05:30:38;9.70;99.90
18888;DHT22;9576;47.792;9.628;2022-12-24T05:33:40;9.70;99.90
18888;DHT22;9576;47.792;9.628;2022-12-24T05:36:43;9.80;99.90
18888;DHT22;9576;47.792;9.628;2022-12-24T05:39:45;9.80;99.90
18888;DHT22;9576;47.792;9.628;2022-12-24T05:42:47;9.80;99.90
18888;DHT22;9576;47.792;9.628;2022-12-24T05:45:50;9.80;99.90
18888;DHT22;9576;47.792;9.628;2022-12-24T05:48:52;9.80;99.90
18888;DHT22;9576;47.792;9.628;2022-12-24T05:51:55;9.80;99.90
18888;DHT22;9576;47.792;9.628;2022-12-24T05:54:57;9.80;99.90
18888;DHT22;9576;47.792;9.628;2022-12-24T05:58:00;9.80;99.90
18888;DHT22;9576;47.792;9.628;2022-12-24T06:01:02;9.70;99.90
18888;DHT22;9576;47.792;9.628;2022-12-24T06:04:04;9.70;99.90
18888;DHT22;9576;47.792;9.628;2022-12-24T06:07:08;9.60;99.90
18888;DHT22;9576;47.792;9.628;2022-12-24T06:10:10;9.60;99.90
18888;DHT22;9576;47.792;9.628;2022-12-24T06:13:12;9.60;99.90
18888;DHT22;9576;47.792;9.628;2022-12-24T06:16:15;9.50;99.90
18888;DHT22;9576;47.792;9.628;2022-12-24T06:19:17;9.60;99.90
18888;DHT22;9576;47.792;9.628;2022-12-24T06:22:20;9.50;99.90
18888;DHT22;9576;47.792;9.628;2022-12-24T06:25:22;9.50;99.90
18888;DHT22;9576;47.792;9.628;2022-12-24T06:28:24;9.40;99.90
18888;DHT22;9576;47.792;9.628;2022-12-24T06:31:26;9.40;99.90
18888;DHT22;9576;47.792;9.628;2022-12-24T06:34:28;9.30;99.90
18888;DHT22;9576;47.792;9.628;2022-12-24T06:37:31;9.30;99.90
18888;DHT22;9576;47.792;9.628;2022-12-24T06:40:33;9.20;99.90
18888;DHT22;9576;47.792;9.628;2022-12-24T06:43:35;9.10;99.90
18888;DHT22;9576;47.792;9.628;2022-12-24T06:46:37;9.10;99.90
18888;DHT22;9576;47.792;9.628;2022-12-24T06:49:39;9.00;99.90
18888;DHT22;9576;47.792;9.628;2022-12-24T06:52:42;9.00;99.90
18888;DHT22;9576;47.792;9.628;2022-12-24T06:55:44;8.90;99.90
18888;DHT22;9576;47.792;9.628;2022-12-24T06:58:47;8.90;99.90
18888;DHT22;9576;47.792;9.628;2022-12-24T07:01:48;8.90;99.90
18888;DHT22;9576;47.792;9.628;2022-12-24T07:04:50;8.80;99.90
18888;DHT22;9576;47.792;9.628;2022-12-24T07:07:54;8.70;99.90
18888;DHT22;9576;47.792;9.628;2022-12-24T07:10:57;8.70;99.90
18888;DHT22;9576;47.792;9.628;2022-12-24T07:13:59;8.60;99.90
18888;DHT22;9576;47.792;9.628;2022-12-24T07:17:01;8.60;99.90
18888;DHT22;9576;47.792;9.628;2022-12-24T07:20:04;8.60;99.90
18888;DHT22;9576;47.792;9.628;2022-12-24T07:23:08;8.50;99.90
18888;DHT22;9576;47.792;9.628;2022-12-24T07:26:10;8.50;99.90
18888;DHT22;9576;47.792;9.628;2022-12-24T07:29:12;8.40;99.90
18888;DHT22;9576;47.792;9.628;2022-12-24T07:32:14;8.40;99.90
18888;DHT22;9576;47.792;9.628;2022-12-24T07:35:16;8.40;99.90
18888;DHT22;9576;47.792;9.628;2022-12-24T07:38:19;8.40;99.90
18888;DHT22;9576;47.792;9.628;2022-12-24T07:41:21;8.30;99.90
18888;DHT22;9576;47.792;9.628;2022-12-24T07:44:23;8.30;99.90
18888;DHT22;9576;47.792;9.628;2022-12-24T07:47:25;8.30;99.90
18888;DHT22;9576;47.792;9.628;2022-12-24T07:50:27;8.20;99.90
18888;DHT22;9576;47.792;9.628;2022-12-24T07:53:31;8.20;99.90
18888;DHT22;9576;47.792;9.628;2022-12-24T07:56:33;8.20;99.90
18888;DHT22;9576;47.792;9.628;2022-12-24T07:59:35;8.20;99.90
18888;DHT22;9576;47.792;9.628;2022-12-24T08:02:38;8.20;99.90
18888;DHT22;9576;47.792;9.628;2022-12-24T08:05:41;8.20;99.90
18888;DHT22;9576;47.792;9.628;2022-12-24T08:08:44;8.20;99.90
18888;DHT22;9576;47.792;9.628;2022-12-24T08:11:46;8.20;99.90
18888;DHT22;9576;47.792;9.628;2022-12-24T08:14:48;8.20;99.90
18888;DHT22;9576;47.792;9.628;2022-12-24T08:17:50;8.20;99.90
18888;DHT22;9576;47.792;9.628;2022-12-24T08:20:52;8.20;99.90
18888;DHT22;9576;47.792;9.628;2022-12-24T08:23:55;8.20;99.90
18888;DHT22;9576;47.792;9.628;2022-12-24T08:26:57;8.30;99.90
18888;DHT22;9576;47.792;9.628;2022-12-24T08:29:59;8.20;99.90
18888;DHT22;9576;47.792;9.628;2022-12-24T08:33:01;8.20;99.90
18888;DHT22;9576;47.792;9.628;2022-12-24T08:36:03;8.20;99.90
18888;DHT22;9576;47.792;9.628;2022-12-24T08:39:07;8.20;99.90
18888;DHT22;9576;47.792;9.628;2022-12-24T08:42:09;8.20;99.90
18888;DHT22;9576;47.792;9.628;2022-12-24T08:45:11;8.20;99.90
18888;DHT22;9576;47.792;9.628;2022-12-24T08:48:13;8.20;99.90
18888;DHT22;9576;47.792;9.628;2022-12-24T08:51:15;8.20;99.90
18888;DHT22;9576;47.792;9.628;2022-12-24T08:54:20;8.10;99.90
18888;DHT22;9576;47.792;9.628;2022-12-24T08:57:23;8.10;99.90
18888;DHT22;9576;47.792;9.628;2022-12-24T09:00:25;8.10;99.90
18888;DHT22;9576;47.792;9.628;2022-12-24T09:03:27;8.10;99.90
18888;DHT22;9576;47.792;9.628;2022-12-24T09:06:30;8.10;99.90
18888;DHT22;9576;47.792;9.628;2022-12-24T09:09:33;8.10;99.90
18888;DHT22;9576;47.792;9.628;2022-12-24T09:12:35;8.10;99.90
18888;DHT22;9576;47.792;9.628;2022-12-24T09:15:37;8.00;99.90
18888;DHT22;9576;47.792;9.628;2022-12-24T09:18:39;8.00;99.90
18888;DHT22;9576;47.792;9.628;2022-12-24T09:21:41;8.00;99.90
18888;DHT22;9576;47.792;9.628;2022-12-24T09:24:45;8.10;99.90
18888;DHT22;9576;47.792;9.628;2022-12-24T09:27:47;8.00;99.90
18888;DHT22;9576;47.792;9.628;2022-12-24T09:30:56;8.00;99.90
18888;DHT22;9576;47.792;9.628;2022-12-24T09:33:58;8.00;99.90
18888;DHT22;9576;47.792;9.628;2022-12-24T09:37:00;8.00;99.90
18888;DHT22;9576;47.792;9.628;2022-12-24T09:40:05;8.10;99.90
18888;DHT22;9576;47.792;9.628;2022-12-24T09:43:10;8.10;99.90
18888;DHT22;9576;47.792;9.628;2022-12-24T09:46:19;8.10;99.90
18888;DHT22;9576;47.792;9.628;2022-12-24T09:49:27;8.10;99.90
18888;DHT22;9576;47.792;9.628;2022-12-24T09:52:32;8.10;99.90
18888;DHT22;9576;47.792;9.628;2022-12-24T09:55:42;8.10;99.90
18888;DHT22;9576;47.792;9.628;2022-12-24T09:58:46;8.20;99.90
18888;DHT22;9576;47.792;9.628;2022-12-24T10:01:49;8.20;99.90
18888;DHT22;9576;47.792;9.628;2022-12-24T10:04:52;8.20;99.90
18888;DHT22;9576;47.792;9.628;2022-12-24T10:08:01;8.20;99.90
18888;DHT22;9576;47.792;9.628;2022-12-24T10:11:18;8.30;99.90
18888;DHT22;9576;47.792;9.628;2022-12-24T10:14:41;8.30;99.90
18888;DHT22;9576;47.792;9.628;2022-12-24T10:17:55;8.30;99.90
18888;DHT22;9576;47.792;9.628;2022-12-24T10:21:09;8.30;99.90
18888;DHT22;9576;47.792;9.628;2022-12-24T10:24:17;8.40;99.90
18888;DHT22;9576;47.792;9.628;2022-12-24T10:27:24;8.40;99.90
18888;DHT22;9576;47.792;9.628;2022-12-24T10:30:28;8.40;99.90
18888;DHT22;9576;47.792;9.628;2022-12-24T10:33:36;8.40;99.90
18888;DHT22;9576;47.792;9.628;2022-12-24T10:36:41;8.40;99.90
18888;DHT22;9576;47.792;9.628;2022-12-24T10:39:43;8.30;99.90
18888;DHT22;9576;47.792;9.628;2022-12-24T10:42:46;8.30;99.90
18888;DHT22;9576;47.792;9.628;2022-12-24T10:45:51;8.30;99.90
18888;DHT22;9576;47.792;9.628;2022-12-24T10:48:58;8.20;99.90
18888;DHT22;9576;47.792;9.628;2022-12-24T10:52:04;8.30;99.90
18888;DHT22;9576;47.792;9.628;2022-12-24T10:55:09;8.30;99.90
18888;DHT22;9576;47.792;9.628;2022-12-24T10:58:16;8.30;99.90
18888;DHT22;9576;47.792;9.628;2022-12-24T11:01:19;8.20;99.90
18888;DHT22;9576;47.792;9.628;2022-12-24T11:04:24;8.20;99.90
18888;DHT22;9576;47.792;9.628;2022-12-24T11:07:27;8.20;99.90
18888;DHT22;9576;47.792;9.628;2022-12-24T11:10:39;8.20;99.90
18888;DHT22;9576;47.792;9.628;2022-12-24T11:13:45;8.20;99.90
18888;DHT22;9576;47.792;9.628;2022-12-24T11:16:54;8.30;99.90
18888;DHT22;9576;47.792;9.628;2022-12-24T11:19:56;8.30;99.90
18888;DHT22;9576;47.792;9.628;2022-12-24T11:22:59;8.40;99.90
18888;DHT22;9576;47.792;9.628;2022-12-24T11:26:02;8.40;99.90
18888;DHT22;9576;47.792;9.628;2022-12-24T11:29:12;8.40;99.90
18888;DHT22;9576;47.792;9.628;2022-12-24T11:32:18;8.40;99.90
18888;DHT22;9576;47.792;9.628;2022-12-24T11:35:22;8.40;99.90
18888;DHT22;9576;47.792;9.628;2022-12-24T11:38:25;8.40;99.90
18888;DHT22;9576;47.792;9.628;2022-12-24T11:41:35;8.50;99.90
18888;DHT22;9576;47.792;9.628;2022-12-24T11:44:46;8.50;99.90
18888;DHT22;9576;47.792;9.628;2022-12-24T11:47:49;8.50;99.90
18888;DHT22;9576;47.792;9.628;2022-12-24T11:50:57;8.50;99.90
18888;DHT22;9576;47.792;9.628;2022-12-24T11:54:07;8.50;99.90
18888;DHT22;9576;47.792;9.628;2022-12-24T11:57:11;8.50;99.90
18888;DHT22;9576;47.792;9.628;2022-12-24T12:00:16;8.40;99.90
18888;DHT22;9576;47.792;9.628;2022-12-24T12:03:29;8.40;99.90
18888;DHT22;9576;47.792;9.628;2022-12-24T12:06:36;8.40;99.90
18888;DHT22;9576;47.792;9.628;2022-12-24T12:09:41;8.50;99.90
18888;DHT22;9576;47.792;9.628;2022-12-24T12:12:46;8.50;99.90
18888;DHT22;9576;47.792;9.628;2022-12-24T12:16:03;8.50;99.90
18888;DHT22;9576;47.792;9.628;2022-12-24T12:19:08;8.50;99.90
18888;DHT22;9576;47.792;9.628;2022-12-24T12:22:20;8.50;99.90
18888;DHT22;9576;47.792;9.628;2022-12-24T12:25:29;8.40;99.90
18888;DHT22;9576;47.792;9.628;2022-12-24T12:28:37;8.40;99.90
18888;DHT22;9576;47.792;9.628;2022-12-24T12:31:46;8.40;99.90
18888;DHT22;9576;47.792;9.628;2022-12-24T12:34:58;8.40;99.90
18888;DHT22;9576;47.792;9.628;2022-12-24T12:38:05;8.40;99.90
18888;DHT22;9576;47.792;9.628;2022-12-24T12:41:18;8.40;99.90
18888;DHT22;9576;47.792;9.628;2022-12-24T12:44:26;8.50;99.90
18888;DHT22;9576;47.792;9.628;2022-12-24T12:47:49;8.50;99.90
18888;DHT22;9576;47.792;9.628;2022-12-24T12:50:56;8.50;99.90
18888;DHT22;9576;47.792;9.628;2022-12-24T12:54:22;8.60;99.90
18888;DHT22;9576;47.792;9.628;2022-12-24T12:57:31;8.60;99.90
18888;DHT22;9576;47.792;9.628;2022-12-24T13:00:37;8.70;99.90
18888;DHT22;9576;47.792;9.628;2022-12-24T13:04:01;8.80;99.90
18888;DHT22;9576;47.792;9.628;2022-12-24T13:07:25;8.80;99.90
18888;DHT22;9576;47.792;9.628;2022-12-24T13:10:50;8.80;99.90
18888;DHT22;9576;47.792;9.628;2022-12-24T13:14:10;8.90;99.90
18888;DHT22;9576;47.792;9.628;2022-12-24T13:17:28;8.90;99.90
18888;DHT22;9576;47.792;9.628;2022-12-24T13:20:38;9.00;99.90
18888;DHT22;9576;47.792;9.628;2022-12-24T13:23:40;9.00;99.90
18888;DHT22;9576;47.792;9.628;2022-12-24T13:26:42;9.00;99.90
18888;DHT22;9576;47.792;9.628;2022-12-24T13:30:03;9.00;99.90
18888;DHT22;9576;47.792;9.628;2022-12-24T13:33:08;9.00;99.90
18888;DHT22;9576;47.792;9.628;2022-12-24T13:36:13;9.00;99.90
18888;DHT22;9576;47.792;9.628;2022-12-24T13:39:18;8.90;99.90
18888;DHT22;9576;47.792;9.628;2022-12-24T13:42:51;8.80;99.90
18888;DHT22;9576;47.792;9.628;2022-12-24T13:45:53;8.80;99.90
18888;DHT22;9576;47.792;9.628;2022-12-24T13:48:55;8.70;99.90
18888;DHT22;9576;47.792;9.628;2022-12-24T13:52:23;8.70;99.90
18888;DHT22;9576;47.792;9.628;2022-12-24T13:55:26;8.60;99.90
18888;DHT22;9576;47.792;9.628;2022-12-24T13:58:29;8.60;99.90
18888;DHT22;9576;47.792;9.628;2022-12-24T14:01:33;8.60;99.90
18888;DHT22;9576;47.792;9.628;2022-12-24T14:04:36;8.50;99.90
18888;DHT22;9576;47.792;9.628;2022-12-24T14:07:46;8.50;99.90
18888;DHT22;9576;47.792;9.628;2022-12-24T14:11:00;8.50;99.90
18888;DHT22;9576;47.792;9.628;2022-12-24T14:14:24;8.50;99.90
18888;DHT22;9576;47.792;9.628;2022-12-24T14:17:27;8.40;99.90
18888;DHT22;9576;47.792;9.628;2022-12-24T14:20:31;8.40;99.90
18888;DHT22;9576;47.792;9.628;2022-12-24T14:23:43;8.50;99.90
18888;DHT22;9576;47.792;9.628;2022-12-24T14:26:48;8.50;99.90
18888;DHT22;9576;47.792;9.628;2022-12-24T14:29:57;8.60;99.90
18888;DHT22;9576;47.792;9.628;2022-12-24T14:33:01;8.70;99.90
18888;DHT22;9576;47.792;9.628;2022-12-24T14:36:03;8.70;99.90
18888;DHT22;9576;47.792;9.628;2022-12-24T14:39:20;8.70;99.90
18888;DHT22;9576;47.792;9.628;2022-12-24T14:42:33;8.60;99.90
18888;DHT22;9576;47.792;9.628;2022-12-24T14:45:42;8.50;99.90
18888;DHT22;9576;47.792;9.628;2022-12-24T14:48:51;8.40;99.90
18888;DHT22;9576;47.792;9.628;2022-12-24T14:52:01;8.30;99.90
18888;DHT22;9576;47.792;9.628;2022-12-24T14:55:34;8.30;99.90
18888;DHT22;9576;47.792;9.628;2022-12-24T14:58:38;8.20;99.90
18888;DHT22;9576;47.792;9.628;2022-12-24T15:01:40;8.20;99.90
18888;DHT22;9576;47.792;9.628;2022-12-24T15:04:42;8.10;99.90
18888;DHT22;9576;47.792;9.628;2022-12-24T15:07:46;8.10;99.90
18888;DHT22;9576;47.792;9.628;2022-12-24T15:10:52;8.10;99.90
18888;DHT22;9576;47.792;9.628;2022-12-24T15:13:57;8.10;99.90
18888;DHT22;9576;47.792;9.628;2022-12-24T15:17:02;8.10;99.90
18888;DHT22;9576;47.792;9.628;2022-12-24T15:20:09;8.10;99.90
18888;DHT22;9576;47.792;9.628;2022-12-24T15:23:19;8.10;99.90
18888;DHT22;9576;47.792;9.628;2022-12-24T15:26:24;8.10;99.90
18888;DHT22;9576;47.792;9.628;2022-12-24T15:29:28;8.10;99.90
18888;DHT22;9576;47.792;9.628;2022-12-24T15:32:31;8.10;99.90
18888;DHT22;9576;47.792;9.628;2022-12-24T15:35:46;8.10;99.90
18888;DHT22;9576;47.792;9.628;2022-12-24T15:38:49;8.10;99.90
18888;DHT22;9576;47.792;9.628;2022-12-24T15:41:53;8.10;99.90
18888;DHT22;9576;47.792;9.628;2022-12-24T15:45:14;8.00;99.90
18888;DHT22;9576;47.792;9.628;2022-12-24T15:48:21;8.00;99.90
18888;DHT22;9576;47.792;9.628;2022-12-24T15:51:26;7.90;99.90
18888;DHT22;9576;47.792;9.628;2022-12-24T15:54:29;7.90;99.90
18888;DHT22;9576;47.792;9.628;2022-12-24T15:57:33;7.90;99.90
18888;DHT22;9576;47.792;9.628;2022-12-24T16:00:36;7.80;99.90
18888;DHT22;9576;47.792;9.628;2022-12-24T16:03:38;7.80;99.90
18888;DHT22;9576;47.792;9.628;2022-12-24T16:06:54;7.80;99.90
18888;DHT22;9576;47.792;9.628;2022-12-24T16:09:57;7.80;99.90
18888;DHT22;9576;47.792;9.628;2022-12-24T16:13:18;7.80;99.90
18888;DHT22;9576;47.792;9.628;2022-12-24T16:16:29;7.80;99.90
18888;DHT22;9576;47.792;9.628;2022-12-24T16:19:32;7.70;99.90
18888;DHT22;9576;47.792;9.628;2022-12-24T16:22:34;7.70;99.90
18888;DHT22;9576;47.792;9.628;2022-12-24T16:25:36;7.80;99.90
18888;DHT22;9576;47.792;9.628;2022-12-24T16:28:39;7.80;99.90
18888;DHT22;9576;47.792;9.628;2022-12-24T16:31:44;7.80;99.90
18888;DHT22;9576;47.792;9.628;2022-12-24T16:34:46;7.80;99.90
18888;DHT22;9576;47.792;9.628;2022-12-24T16:37:50;7.70;99.90
18888;DHT22;9576;47.792;9.628;2022-12-24T16:40:51;7.80;99.90
18888;DHT22;9576;47.792;9.628;2022-12-24T16:43:55;7.80;99.90
18888;DHT22;9576;47.792;9.628;2022-12-24T16:46:58;7.80;99.90
18888;DHT22;9576;47.792;9.628;2022-12-24T16:50:01;7.80;99.90
18888;DHT22;9576;47.792;9.628;2022-12-24T16:53:03;7.90;99.90
18888;DHT22;9576;47.792;9.628;2022-12-24T16:56:05;7.90;99.90
18888;DHT22;9576;47.792;9.628;2022-12-24T16:59:15;7.90;99.90
18888;DHT22;9576;47.792;9.628;2022-12-24T17:02:19;7.90;99.90
18888;DHT22;9576;47.792;9.628;2022-12-24T17:05:21;8.00;99.90
18888;DHT22;9576;47.792;9.628;2022-12-24T17:08:23;7.80;99.90
18888;DHT22;9576;47.792;9.628;2022-12-24T17:11:25;7.80;99.90
18888;DHT22;9576;47.792;9.628;2022-12-24T17:14:28;7.70;99.90
18888;DHT22;9576;47.792;9.628;2022-12-24T17:17:31;7.60;99.90
18888;DHT22;9576;47.792;9.628;2022-12-24T17:20:33;7.60;99.90
18888;DHT22;9576;47.792;9.628;2022-12-24T17:23:35;7.50;99.90
18888;DHT22;9576;47.792;9.628;2022-12-24T17:26:37;7.60;99.90
18888;DHT22;9576;47.792;9.628;2022-12-24T17:29:41;7.50;99.90
18888;DHT22;9576;47.792;9.628;2022-12-24T17:32:43;7.60;99.90
18888;DHT22;9576;47.792;9.628;2022-12-24T17:35:45;7.60;99.90
18888;DHT22;9576;47.792;9.628;2022-12-24T17:38:49;7.60;99.90
18888;DHT22;9576;47.792;9.628;2022-12-24T17:41:51;7.60;99.90
18888;DHT22;9576;47.792;9.628;2022-12-24T17:44:56;7.60;99.90
18888;DHT22;9576;47.792;9.628;2022-12-24T17:47:59;7.60;99.90
18888;DHT22;9576;47.792;9.628;2022-12-24T17:51:03;7.50;99.90
18888;DHT22;9576;47.792;9.628;2022-12-24T17:54:05;7.60;99.90
18888;DHT22;9576;47.792;9.628;2022-12-24T17:57:07;7.60;99.90
18888;DHT22;9576;47.792;9.628;2022-12-24T18:00:12;7.60;99.90
18888;DHT22;9576;47.792;9.628;2022-12-24T18:03:14;7.70;99.90
18888;DHT22;9576;47.792;9.628;2022-12-24T18:06:16;7.70;99.90
18888;DHT22;9576;47.792;9.628;2022-12-24T18:09:19;7.80;99.90
18888;DHT22;9576;47.792;9.628;2022-12-24T18:12:21;7.80;99.90
18888;DHT22;9576;47.792;9.628;2022-12-24T18:15:24;7.90;99.90
18888;DHT22;9576;47.792;9.628;2022-12-24T18:18:26;7.90;99.90
18888;DHT22;9576;47.792;9.628;2022-12-24T18:21:29;8.00;99.90
18888;DHT22;9576;47.792;9.628;2022-12-24T18:24:31;8.00;99.90
18888;DHT22;9576;47.792;9.628;2022-12-24T18:27:33;8.00;99.90
18888;DHT22;9576;47.792;9.628;2022-12-24T18:30:37;8.10;99.90
18888;DHT22;9576;47.792;9.628;2022-12-24T18:33:39;8.10;99.90
18888;DHT22;9576;47.792;9.628;2022-12-24T18:36:42;8.10;99.90
18888;DHT22;9576;47.792;9.628;2022-12-24T18:39:44;8.00;99.90
18888;DHT22;9576;47.792;9.628;2022-12-24T18:42:45;8.00;99.90
18888;DHT22;9576;47.792;9.628;2022-12-24T18:45:49;7.90;99.90
18888;DHT22;9576;47.792;9.628;2022-12-24T18:48:52;7.80;99.90
18888;DHT22;9576;47.792;9.628;2022-12-24T18:51:54;7.80;99.90
18888;DHT22;9576;47.792;9.628;2022-12-24T18:54:56;7.70;99.90
18888;DHT22;9576;47.792;9.628;2022-12-24T18:57:58;7.70;99.90
18888;DHT22;9576;47.792;9.628;2022-12-24T19:01:01;7.80;99.90
18888;DHT22;9576;47.792;9.628;2022-12-24T19:04:09;7.80;99.90
18888;DHT22;9576;47.792;9.628;2022-12-24T19:07:14;7.80;99.90
18888;DHT22;9576;47.792;9.628;2022-12-24T19:10:16;7.80;99.90
18888;DHT22;9576;47.792;9.628;2022-12-24T19:13:18;7.80;99.90
18888;DHT22;9576;47.792;9.628;2022-12-24T19:16:21;7.90;99.90
18888;DHT22;9576;47.792;9.628;2022-12-24T19:19:23;7.90;99.90
18888;DHT22;9576;47.792;9.628;2022-12-24T19:22:25;7.90;99.90
18888;DHT22;9576;47.792;9.628;2022-12-24T19:25:28;8.00;99.90
18888;DHT22;9576;47.792;9.628;2022-12-24T19:28:30;8.00;99.90
18888;DHT22;9576;47.792;9.628;2022-12-24T19:31:34;8.00;99.90
18888;DHT22;9576;47.792;9.628;2022-12-24T19:34:36;8.00;99.90
18888;DHT22;9576;47.792;9.628;2022-12-24T19:37:37;8.00;99.90
18888;DHT22;9576;47.792;9.628;2022-12-24T19:40:39;8.00;99.90
18888;DHT22;9576;47.792;9.628;2022-12-24T19:43:43;8.00;99.90
18888;DHT22;9576;47.792;9.628;2022-12-24T19:46:47;7.90;99.90
18888;DHT22;9576;47.792;9.628;2022-12-24T19:49:49;7.90;99.90
18888;DHT22;9576;47.792;9.628;2022-12-24T19:52:51;7.90;99.90
18888;DHT22;9576;47.792;9.628;2022-12-24T19:55:53;7.90;99.90
18888;DHT22;9576;47.792;9.628;2022-12-24T19:58:55;7.90;99.90
18888;DHT22;9576;47.792;9.628;2022-12-24T20:01:59;7.90;99.90